Flight Track Log - Related Links

Times and Time Zones

All times are in EDT time to prevent confusion due to time zone crossing. See the GJS3710 flight status page for this flight to view local times or setup timezone preferences in your user account.

Time Position Orientation Groundspeed Altitude Reporting Facility
EDT Latitude Longitude Course Direction KTS MPH feet Rate Location/Type
Thu 07:57:56 PM 42.0000 -87.8833 66° East 145 167 1,300  Level Chicago TRACON
Thu 08:00:00 PM 42.0829 -87.5747 63° Northeast  Level FlightAware Approximate
Thu 08:01:00 PM 42.1680 -87.3460 66° East  Level FlightAware Approximate
Thu 08:02:00 PM 42.2159 -87.2022 66° East  Level FlightAware Approximate
Thu 08:03:00 PM 42.2639 -87.0584 66° East  Level FlightAware Approximate
Thu 08:03:26 PM 42.1300 -87.4147 90° East 283 326 12,900  Level Chicago Center
Thu 08:04:28 PM 42.1717 -87.3125 61° Northeast 309 356 14,100 1,258 Climbing Chicago Center
Thu 08:05:30 PM 42.1806 -87.1753 85° East 365 420 15,500 1,790 Climbing Chicago Center
Thu 08:06:32 PM 42.1897 -87.0025 86° East 384 442 17,800 1,887 Climbing Chicago Center
Thu 08:07:00 PM 42.2958 -86.5506 80° East  Level FlightAware Approximate
Thu 08:07:34 PM 42.1956 -86.8564 87° East 392 451 19,400  Level Chicago Center
Thu 08:08:00 PM 42.3000 -86.3963 90° East  Level FlightAware Approximate
Thu 08:08:37 PM 42.2039 -86.7061 86° East 402 463 21,100  Level Chicago Center
Thu 08:09:39 PM 42.2106 -86.5647 86° East 405 466 22,600 1,597 Climbing Chicago Center
Thu 08:10:41 PM 42.2194 -86.3786 86° East 413 475 24,400 1,548 Climbing Chicago Center
Thu 08:11:43 PM 42.2264 -86.2211 87° East 419 482 25,800 1,258 Climbing Chicago Center
Thu 08:12:45 PM 42.2331 -86.0614 87° East 424 488 27,000 1,161 Climbing Chicago Center
Thu 08:13:47 PM 42.2400 -85.8792 87° East 434 499 28,200 1,065 Climbing Chicago Center
Thu 08:14:49 PM 42.2456 -85.7117 87° East 447 514 29,200 968 Climbing Chicago Center
Thu 08:15:51 PM 42.2514 -85.5436 87° East 452 520 30,200 968 Climbing Chicago Center
Thu 08:16:53 PM 42.2567 -85.3711 88° East 459 528 31,200 960 Climbing Chicago Center
Thu 08:17:56 PM 42.2656 -85.1958 86° East 469 540 32,200 1,056 Climbing Chicago Center
Thu 08:18:58 PM 42.2725 -84.9878 87° East 467 537 33,400 1,065 Climbing Chicago Center
Thu 08:20:00 PM 42.2772 -84.8178 88° East 459 528 34,400 774 Climbing Chicago Center
Thu 08:21:02 PM 42.2897 -84.6494 84° East 454 522 35,000 532 Climbing Chicago Center
Thu 08:22:04 PM 42.3061 -84.4778 83° East 459 528 35,500 581 Climbing Chicago Center
Thu 08:23:06 PM 42.3208 -84.3058 83° East 462 532 36,200 690 Climbing Chicago Center
Thu 08:23:31 PM 42.3278 -84.2150 84° East 463 533 36,500 494 Climbing Cleveland Center
Thu 08:24:31 PM 42.3414 -84.0442 84° East 463 533 36,900 250 Climbing Cleveland Center
Thu 08:25:31 PM 42.3569 -83.8681 83° East 463 533 37,000 50 Climbing Cleveland Center
Thu 08:26:31 PM 42.3744 -83.6919 82° East 463 533 37,000  Level Cleveland Center
Thu 08:27:31 PM 42.3853 -83.5125 85° East 463 533 37,000  Level Cleveland Center
Thu 08:28:31 PM 42.4003 -83.3331 83° East 474 545 37,000  Level Cleveland Center
Thu 08:29:31 PM 42.4150 -83.1481 84° East 483 556 37,000  Level Cleveland Center
Thu 08:30:31 PM 42.4272 -82.9686 85° East 483 556 37,000  Level Cleveland Center
Thu 08:31:31 PM 42.4411 -82.7889 84° East 478 550 37,000  Level Cleveland Center
Thu 08:33:00 PM 42.4568 -82.5571 85° East  Level FlightAware Approximate
Thu 08:33:31 PM 42.4661 -82.4325 85° East 478 550 37,000  Level Cleveland Center
Thu 08:34:31 PM 42.4794 -82.2497 84° East 478 550 37,000  Level Cleveland Center
Thu 08:35:31 PM 42.4922 -82.0728 84° East 478 550 37,000  Level Cleveland Center
Thu 08:36:31 PM 42.5047 -81.8928 85° East 478 550 37,000  Level Cleveland Center
Thu 08:37:31 PM 42.5169 -81.7297 84° East 478 550 37,000  Level Cleveland Center
Thu 08:38:31 PM 42.5269 -81.5522 86° East 478 550 37,000  Level Cleveland Center
Thu 08:39:31 PM 42.5389 -81.3553 85° East 478 550 37,000  Level Cleveland Center
Thu 08:40:31 PM 42.5483 -81.1667 86° East 478 550 37,000  Level Cleveland Center
Thu 08:41:31 PM 42.5617 -80.9864 84° East 478 550 37,000  Level Cleveland Center
Thu 08:42:31 PM 42.5725 -80.8031 85° East 478 550 37,000  Level Cleveland Center
Thu 08:43:31 PM 42.5831 -80.6228 85° East 478 550 37,000  Level Cleveland Center
Thu 08:44:31 PM 42.5914 -80.4422 86° East 478 550 37,000  Level Cleveland Center
Thu 08:45:31 PM 42.6014 -80.2561 86° East 484 557 37,000  Level Cleveland Center
Thu 08:46:31 PM 42.6111 -80.0753 86° East 484 557 37,000  Level Cleveland Center
Thu 08:47:31 PM 42.6208 -79.8975 86° East 478 550 37,000  Level Cleveland Center
Thu 08:48:31 PM 42.6278 -79.7142 87° East 478 550 37,000  Level Cleveland Center
Thu 08:49:31 PM 42.6367 -79.5278 86° East 483 556 37,000  Level Cleveland Center
Thu 08:50:31 PM 42.6475 -79.3439 85° East 483 556 37,000  Level Cleveland Center
Thu 08:51:31 PM 42.6514 -79.1547 88° East 489 563 37,000  Level Cleveland Center
Thu 08:52:31 PM 42.6614 -78.9681 86° East 495 570 37,000  Level Cleveland Center
Thu 08:53:31 PM 42.6669 -78.7789 88° East 495 570 37,000  Level Cleveland Center
Thu 08:54:31 PM 42.6744 -78.5950 87° East 495 570 37,000  Level Cleveland Center
Thu 08:55:31 PM 42.6814 -78.4056 87° East 495 570 37,000  Level Cleveland Center
Thu 08:56:31 PM 42.6881 -78.2161 87° East 500 575 37,000  Level Cleveland Center
Thu 08:57:31 PM 42.6944 -78.0267 87° East 500 575 37,000 -350 Level Cleveland Center
Thu 08:58:31 PM 42.7006 -77.8369 87° East 500 575 36,300 -1,000 Descending Cleveland Center
Thu 08:59:31 PM 42.7089 -77.6672 86° East 500 575 35,000 -1,446 Descending Cleveland Center
Thu 09:02:15 PM 42.7175 -77.1547 89° East 512 589 30,900 -1,473 Descending Boston Center
Thu 09:03:15 PM 42.7228 -76.9714 88° East 512 589 29,500 -950 Descending Boston Center
Thu 09:04:15 PM 42.7256 -76.7933 89° East 491 565 29,000 -250 Descending Boston Center
Thu 09:05:15 PM 42.7303 -76.6100 88° East 478 550 29,000  Level Boston Center
Thu 09:06:15 PM 42.7328 -76.4261 89° East 478 550 29,000 -45 Level Boston Center
Thu 09:07:27 PM 42.7336 -76.2169 90° East 484 557 28,900 -45 Descending Boston Center
Thu 09:08:27 PM 42.7408 -75.9939 87° East 490 564 28,900 -700 Level Boston Center
Thu 09:09:27 PM 42.7419 -75.8186 89° East 503 579 27,500 -1,950 Descending Boston Center
Thu 09:10:27 PM 42.7453 -75.6378 89° East 493 567 25,000 -2,450 Descending Boston Center
Thu 09:11:27 PM 42.7458 -75.4625 90° East 471 542 22,600 -2,350 Descending Boston Center
Thu 09:12:27 PM 42.7461 -75.2931 90° East 457 526 20,300 -2,300 Descending Boston Center
Thu 09:13:27 PM 42.7478 -75.1347 89° East 434 499 18,000 -2,150 Descending Boston Center
Thu 09:14:27 PM 42.7492 -74.9847 89° East 416 479 16,000 -2,000 Descending Boston Center
Thu 09:15:27 PM 42.7503 -74.8378 89° East 395 455 14,000 -1,750 Descending Boston Center
Thu 09:16:27 PM 42.7492 -74.6850 91° East 365 420 12,500 -1,200 Descending Boston Center
Thu 09:17:27 PM 42.7475 -74.5633 91° East 358 412 11,600 -1,000 Descending Boston Center
Thu 09:18:27 PM 42.7206 -74.4325 106° East 343 395 10,500 -1,200 Descending Boston Center
Thu 09:19:27 PM 42.6972 -74.3414 109° East 299 344 9,200 -1,500 Descending Boston Center
Thu 09:20:27 PM 42.6697 -74.2303 109° East 284 327 7,500 -1,680 Descending Boston Center
Thu 09:20:42 PM 42.6639 -74.2133 115° Southeast 278 320 7,100 -1,400 Descending Boston Center
Thu 09:21:27 PM 42.6461 -74.1478 110° East 268 308 6,100 -1,574 Descending Boston Center
Thu 09:21:43 PM 42.6381 -74.1136 108° East 255 293 5,500 -1,543 Descending Boston Center
Thu 09:22:37 PM 42.6183 -74.0397 110° East 247 284 4,300 -1,154 Descending Boston Center
Thu 09:23:27 PM 42.6006 -73.9689 109° East 245 282 3,500 -639 Descending Boston Center
Thu 09:24:39 PM 42.5767 -73.8808 110° East 197 227 3,000 -542 Descending Boston Center
Thu 09:25:51 PM 42.5922 -73.8106 73° East 188 216 2,200 -667 Descending Boston Center

Login

Don't have an account? Register now (free) for customized features, flight alerts, and more!